This is the latest recevied weather packets stored in our database for station/object N7WSS. If no packets are shown the sender has not sent any weather packets the latest 10 day(s).
| Time | Temp. | Humidity | Pressure | Rain* | Wind** | Luminosity | Snow |
|---|---|---|---|---|---|---|---|
| 1777777231 | 25.56° C | 29% | 1010.6 hPa | 0 mm | - | - | - |
| 1777776927 | 25.56° C | 29% | 1010.5 hPa | 0 mm | - | - | - |
| 1777776625 | 25.56° C | 29% | 1010.6 hPa | 0 mm | - | - | - |
| 1777776321 | 25.56° C | 29% | 1010.5 hPa | 0 mm | - | - | - |
| 1777776018 | 25.56° C | 29% | 1010.4 hPa | 0 mm | - | - | - |
| 1777775715 | 25.56° C | 29% | 1010.2 hPa | 0 mm | - | - | - |
| 1777775413 | 25.56° C | 29% | 1010.4 hPa | 0 mm | - | - | - |
| 1777770258 | 28.33° C | 25% | 1010.6 hPa | 0 mm | - | - | - |
| 1777769955 | 28.33° C | 25% | 1010.6 hPa | 0 mm | - | - | - |
| 1777767227 | 28.89° C | 24% | 1010.4 hPa | 0 mm | - | - | - |
| 1777766925 | 29.44° C | 24% | 1010.4 hPa | 0 mm | - | - | - |
| 1777766622 | 28.89° C | 24% | 1010.3 hPa | 0 mm | - | - | - |
| 1777766319 | 28.89° C | 25% | 1010.2 hPa | 0 mm | - | - | - |
| 1777764500 | 28.33° C | 24% | 1010.3 hPa | 0 mm | - | - | - |
| 1777761168 | 29.44° C | 24% | 1010.8 hPa | 0 mm | - | - | - |
| 1777760865 | 30.56° C | 22% | 1010.8 hPa | 0 mm | - | - | - |
| 1777760562 | 30.56° C | 22% | 1010.7 hPa | 0 mm | - | - | - |
| 1777760258 | 30° C | 22% | 1010.9 hPa | 0 mm | - | - | - |
| 1777759651 | 28.33° C | 24% | 1011.1 hPa | 0 mm | - | - | - |
| 1777757833 | 30° C | 22% | 1011.8 hPa | 0 mm | - | - | - |
| 1777755410 | 29.44° C | 21% | 1012.1 hPa | 0 mm | - | - | - |
| 1777755107 | 28.89° C | 21% | 1012.3 hPa | 0 mm | - | - | - |
| 1777754804 | 30° C | 21% | 1012.3 hPa | 0 mm | - | - | - |
| 1777754198 | 29.44° C | 19% | 1012.6 hPa | 0 mm | - | - | - |
| 1777753896 | 29.44° C | 18% | 1012.5 hPa | 0 mm | - | - | - |
* Rain latest hour (hover to see other rain measurements)
** Current wind speed in m/s (hover to see current wind gust speed)